Latheron, United Kingdom
Current Conditions -  °F | °C
As of 1:20 AM on Tuesday 23 Dec 2014 (Local Time) from EGPC Reporting Station
Few Clouds Few Clouds  
Wind Chill: -2°   Ceiling: Unl
Heat Index:   Visibility: 6mi
Dew Point:   Wind: 16mph
Humidity: 87%   Direction: 270°W
Pressure: 29.44"   Gusts: NA
Location:  58.29°N, 3.35°W
Report Text: EGPC 230120Z AUTO 27014KT 9999 FEW023/// 03/01 Q0997
Loading
Personal Weather Stations






























Interactive Weather Map New forecast layout! Learn more

10-Day Weather Forecast

Advertisements
Track Severe Weather on mobile